Terminal Aerodrome Forecast
Issued by NWS Blacksburg, VA

Current Version | Previous Version | Text Only | Print | Product List | Glossary On
Versions: 1 2 3 4 5 6 7 8 9 10 11 12 13 14 15 16 17 18 19 20 21 22 23 24 25 26 27 28 29 30 31
000
FTUS41 KRNK 290301 AAC
TAFROA
TAF AMD
KROA 290301Z 2903/2924 03005KT P6SM VCSH BKN009
      TEMPO 2903/2904 2SM SHRA BR SCT009 OVC025
     FM290600 09003KT 4SM -SHRA BR OVC025
     FM291100 09005KT 2SM BR OVC012
     FM291500 09004KT P6SM OVC030
     FM291900 12006KT P6SM BKN035=

USA.gov is the U.S. government's official web portal to all federal, state and local government web resources and services.